Time;durP1;ratioP1;P1;durP2;ratioP2;P2;SDS_P1;SDS_P2;PMS_P1;PMS_P2;Temp;Humidity;BMP_temperature;BMP_pressure;BME280_temperature;BME280_humidity;BME280_pressure;Samples;Min_cycle;Max_cycle;Signal;HPM_P1;HPM_P2
2021/10/12 00:00:26;;;;;;;;;;;;;;;8.98;74.30;99760.00;5077105;28;19994;-69
2021/10/12 00:02:55;;;;;;;;;;;;;;;8.87;74.29;99761.63;5077011;28;19925;-69
2021/10/12 00:05:24;;;;;;;;;;;;;;;8.88;74.73;99757.41;5076976;28;19924;-69
2021/10/12 00:07:53;;;;;;;;;;;;;;;8.96;74.47;99759.13;5077031;28;19924;-69
2021/10/12 00:10:23;;;;;;;;;;;;;;;8.99;74.70;99750.69;5076929;28;19925;-70
2021/10/12 00:12:52;;;;;;;;;;;;;;;8.92;74.40;99749.78;5076878;28;19935;-69
2021/10/12 00:15:20;;;;;;;;;;;;;;;9.02;74.27;99761.72;5076847;28;19925;-70
2021/10/12 00:17:49;;;;;;;;;;;;;;;8.99;74.39;99756.63;5076585;28;19931;-69
2021/10/12 00:20:18;;;;;;;;;;;;;;;8.97;74.43;99758.31;5076785;28;20048;-69
2021/10/12 00:22:46;;;;;;;;;;;;;;;8.77;74.33;99764.94;5077119;28;20381;-69
2021/10/12 00:25:16;;;;;;;;;;;;;;;8.61;74.90;99766.50;5076659;28;20332;-69
2021/10/12 00:27:46;;;;;;;;;;;;;;;8.58;75.09;99750.38;5076627;28;19986;-69
2021/10/12 00:30:16;;;;;;;;;;;;;;;8.62;75.31;99755.50;5076733;28;20447;-69
2021/10/12 00:32:45;;;;;;;;;;;;;;;8.73;75.22;99758.13;5076479;28;19924;-70
2021/10/12 00:35:14;;;;;;;;;;;;;;;8.72;75.37;99756.41;5076821;28;20027;-69
2021/10/12 00:37:43;;;;;;;;;;;;;;;8.70;75.47;99753.00;5076482;28;19972;-69
2021/10/12 00:40:12;;;;;;;;;;;;;;;8.74;75.38;99754.72;5076418;28;19931;-69
2021/10/12 00:42:40;;;;;;;;;;;;;;;8.73;75.79;99755.59;5076206;28;19947;-70
2021/10/12 00:45:12;;;;;;;;;;;;;;;8.76;75.77;99753.03;5076511;28;20019;-69
2021/10/12 00:47:55;;;;;;;;;;;;;;;8.83;75.21;99744.59;5076360;28;20019;-70
2021/10/12 00:50:23;;;;;;;;;;;;;;;8.83;74.66;99744.59;5076303;28;19928;-69
2021/10/12 00:52:52;;;;;;;;;;;;;;;8.80;75.78;99742.06;5076129;28;19931;-69
2021/10/12 00:55:21;;;;;;;;;;;;;;;8.74;75.77;99734.38;5076143;28;19932;-69
2021/10/12 00:57:49;;;;;;;;;;;;;;;8.81;75.33;99746.28;5076133;28;19931;-69
2021/10/12 01:00:19;;;;;;;;;;;;;;;8.85;76.76;99737.00;5076353;28;19928;-69
2021/10/12 01:02:48;;;;;;;;;;;;;;;8.92;76.23;99736.22;5076294;28;19924;-69
2021/10/12 01:05:17;;;;;;;;;;;;;;;8.95;75.90;99741.31;5075885;28;19924;-69
2021/10/12 01:07:47;;;;;;;;;;;;;;;8.96;76.64;99743.00;5075530;28;20344;-69
2021/10/12 01:10:17;;;;;;;;;;;;;;;8.99;75.76;99746.44;5075810;28;20416;-69
2021/10/12 01:12:46;;;;;;;;;;;;;;;8.97;76.16;99737.94;5076126;28;20015;-70
2021/10/12 01:15:15;;;;;;;;;;;;;;;8.97;75.97;99734.53;5075766;28;19943;-69
2021/10/12 01:17:45;;;;;;;;;;;;;;;8.96;75.99;99731.16;5075389;28;19925;-69
2021/10/12 01:20:14;;;;;;;;;;;;;;;8.95;75.81;99729.44;5076003;28;19930;-69
2021/10/12 01:22:45;;;;;;;;;;;;;;;9.03;76.02;99722.69;5075510;28;19924;-70
2021/10/12 01:25:14;;;;;;;;;;;;;;;9.17;75.15;99723.63;5076266;28;20286;-70
2021/10/12 01:27:44;;;;;;;;;;;;;;;9.27;74.79;99720.28;5075503;28;19924;-70
2021/10/12 01:30:19;;;;;;;;;;;;;;;9.38;74.12;99726.28;5075684;28;19931;-69
2021/10/12 01:32:48;;;;;;;;;;;;;;;9.47;74.36;99729.72;5057876;28;20378;-69
2021/10/12 01:35:19;;;;;;;;;;;;;;;9.49;73.13;99725.47;5075347;28;19925;-69
2021/10/12 01:37:53;;;;;;;;;;;;;;;9.48;73.75;99736.53;5057588;28;20015;-69
2021/10/12 01:40:22;;;;;;;;;;;;;;;9.44;72.85;99736.50;5075616;28;19924;-69
2021/10/12 01:42:50;;;;;;;;;;;;;;;9.39;72.76;99733.09;5075789;28;19931;-70
2021/10/12 01:45:19;;;;;;;;;;;;;;;9.31;72.46;99737.28;5075403;28;20374;-70
2021/10/12 01:47:48;;;;;;;;;;;;;;;9.24;72.90;99725.34;5075630;28;20404;-69
2021/10/12 01:50:16;;;;;;;;;;;;;;;9.19;73.08;99742.31;5075057;28;20381;-69
2021/10/12 01:52:45;;;;;;;;;;;;;;;9.04;73.42;99737.16;5074964;28;19930;-70
2021/10/12 01:55:15;;;;;;;;;;;;;;;8.89;73.44;99726.00;5074913;28;19931;-70
2021/10/12 01:57:43;;;;;;;;;;;;;;;8.76;73.88;99722.50;5075209;28;19925;-69
2021/10/12 02:00:13;;;;;;;;;;;;;;;8.74;74.06;99729.28;5074874;28;19928;-69
2021/10/12 02:02:41;;;;;;;;;;;;;;;8.71;73.95;99725.03;5074842;28;19978;-69
2021/10/12 02:05:10;;;;;;;;;;;;;;;8.58;74.05;99717.31;5074727;28;20332;-69
2021/10/12 02:07:39;;;;;;;;;;;;;;;8.50;73.26;99718.91;5074658;28;19995;-69
2021/10/12 02:10:08;;;;;;;;;;;;;;;8.41;73.93;99709.53;5074656;28;19924;-69
2021/10/12 02:12:38;;;;;;;;;;;;;;;8.28;74.13;99714.50;5074622;28;19924;-70
2021/10/12 02:15:08;;;;;;;;;;;;;;;8.23;74.01;99699.16;5074598;28;19925;-70
2021/10/12 02:17:37;;;;;;;;;;;;;;;8.21;73.66;99710.16;5074458;28;19977;-70
2021/10/12 02:20:07;;;;;;;;;;;;;;;8.17;74.05;99718.59;5073869;28;19924;-70
2021/10/12 02:22:36;;;;;;;;;;;;;;;8.01;73.90;99717.59;5074487;28;19925;-70
2021/10/12 02:25:05;;;;;;;;;;;;;;;7.86;73.71;99713.22;5056637;28;19929;-69
2021/10/12 02:27:39;;;;;;;;;;;;;;;7.79;74.78;99714.00;5074560;28;20354;-69
2021/10/12 02:30:12;;;;;;;;;;;;;;;7.78;74.32;99711.41;5074318;28;19925;-69
2021/10/12 02:32:41;;;;;;;;;;;;;;;7.65;74.25;99707.06;5074439;28;20378;-69
2021/10/12 02:35:10;;;;;;;;;;;;;;;7.54;74.96;99709.47;5074607;28;19924;-70
2021/10/12 02:37:38;;;;;;;;;;;;;;;7.37;75.35;99711.78;5074591;28;19924;-69
2021/10/12 02:40:07;;;;;;;;;;;;;;;7.35;75.46;99713.47;5074151;28;19925;-69
2021/10/12 02:42:36;;;;;;;;;;;;;;;7.46;75.82;99706.00;5074175;28;20037;-69
2021/10/12 02:45:07;;;;;;;;;;;;;;;7.61;75.49;99706.16;5074468;28;19932;-69
2021/10/12 02:47:35;;;;;;;;;;;;;;;7.71;75.94;99697.81;5074050;28;19950;-70
2021/10/12 02:50:04;;;;;;;;;;;;;;;7.70;75.96;99696.09;5074028;28;19924;-69
2021/10/12 02:52:33;;;;;;;;;;;;;;;7.69;75.81;99691.00;5074645;28;20278;-69
2021/10/12 02:55:02;;;;;;;;;;;;;;;7.74;75.24;99689.38;5073969;28;19942;-69
2021/10/12 02:57:32;;;;;;;;;;;;;;;7.69;75.49;99699.47;5073982;28;19924;-69
2021/10/12 03:00:00;;;;;;;;;;;;;;;7.52;75.45;99705.19;5073982;28;19924;-69
2021/10/12 03:02:31;;;;;;;;;;;;;;;7.44;75.29;99695.81;5073991;28;19924;-69
2021/10/12 03:05:00;;;;;;;;;;;;;;;7.43;75.21;99700.88;5073957;28;19974;-69
2021/10/12 03:07:29;;;;;;;;;;;;;;;7.44;75.42;99697.47;5074327;28;19928;-69
2021/10/12 03:09:57;;;;;;;;;;;;;;;7.59;75.49;99695.13;5073887;28;19924;-70
2021/10/12 03:12:26;;;;;;;;;;;;;;;7.71;75.13;99697.81;5073816;28;19925;-69
2021/10/12 03:14:55;;;;;;;;;;;;;;;7.72;74.52;99691.03;5073824;28;19929;-69
2021/10/12 03:17:23;;;;;;;;;;;;;;;7.57;74.95;99689.19;5073491;28;19924;-69
2021/10/12 03:19:53;;;;;;;;;;;;;;;7.55;74.38;99690.88;5074035;28;19985;-70
2021/10/12 03:22:22;;;;;;;;;;;;;;;7.43;74.91;99691.56;5073793;28;19947;-69
2021/10/12 03:24:51;;;;;;;;;;;;;;;7.43;74.67;99680.56;5073690;28;19931;-69
2021/10/12 03:27:19;;;;;;;;;;;;;;;7.30;74.23;99683.78;5073641;28;19925;-69
2021/10/12 03:29:48;;;;;;;;;;;;;;;7.15;74.31;99694.59;5074550;28;19924;-69
2021/10/12 03:32:16;;;;;;;;;;;;;;;7.13;74.42;99680.16;5077739;28;19974;-70
2021/10/12 03:34:45;;;;;;;;;;;;;;;7.10;74.90;99687.75;5077719;28;19924;-69
2021/10/12 03:37:15;;;;;;;;;;;;;;;7.02;74.67;99681.72;5077677;28;19924;-69
2021/10/12 03:39:45;;;;;;;;;;;;;;;6.94;75.25;99688.38;5077534;28;19974;-69
2021/10/12 03:42:13;;;;;;;;;;;;;;;6.88;75.40;99680.69;5077521;28;20316;-69
2021/10/12 03:44:42;;;;;;;;;;;;;;;6.86;75.50;99679.81;5077493;28;19932;-69
2021/10/12 03:47:10;;;;;;;;;;;;;;;6.80;76.08;99687.31;5077647;28;19931;-69
2021/10/12 03:49:39;;;;;;;;;;;;;;;6.79;75.88;99688.19;5077303;28;19925;-70
2021/10/12 03:52:09;;;;;;;;;;;;;;;6.83;76.32;99692.44;5077389;28;19924;-70
2021/10/12 03:54:39;;;;;;;;;;;;;;;6.96;76.26;99686.72;5077419;28;19924;-69
2021/10/12 03:57:07;;;;;;;;;;;;;;;7.11;76.41;99689.44;5077293;28;19924;-69
2021/10/12 03:59:36;;;;;;;;;;;;;;;7.26;76.61;99676.97;5077140;28;19930;-69
2021/10/12 04:02:04;;;;;;;;;;;;;;;7.37;76.70;99680.47;5077465;28;19970;-69
2021/10/12 04:04:33;;;;;;;;;;;;;;;7.47;76.29;99682.28;5077322;28;20322;-70
2021/10/12 04:07:02;;;;;;;;;;;;;;;7.53;76.30;99676.44;5076981;28;19977;-69
2021/10/12 04:09:31;;;;;;;;;;;;;;;7.50;75.86;99667.09;5076957;28;19924;-69
2021/10/12 04:12:02;;;;;;;;;;;;;;;7.47;76.01;99672.13;5077012;28;19977;-69
2021/10/12 04:14:30;;;;;;;;;;;;;;;7.42;75.30;99671.22;5077409;28;19947;-69
2021/10/12 04:16:59;;;;;;;;;;;;;;;7.28;75.55;99657.53;5076086;28;20407;-70
2021/10/12 04:19:28;;;;;;;;;;;;;;;7.24;76.01;99658.34;5075685;28;20416;-69
2021/10/12 04:22:00;;;;;;;;;;;;;;;7.22;76.23;99650.69;5076780;28;19931;-69
2021/10/12 04:24:29;;;;;;;;;;;;;;;7.17;76.17;99641.31;5076798;28;20028;-69
2021/10/12 04:27:06;;;;;;;;;;;;;;;7.19;76.59;99649.81;5076679;28;19970;-69
2021/10/12 04:29:36;;;;;;;;;;;;;;;7.29;76.07;99656.69;5076794;28;19928;-70
2021/10/12 04:32:09;;;;;;;;;;;;;;;7.39;76.37;99658.50;5077000;28;19928;-69
2021/10/12 04:34:38;;;;;;;;;;;;;;;7.32;76.49;99659.25;5076610;28;19924;-69
2021/10/12 04:37:10;;;;;;;;;;;;;;;7.17;75.83;99651.47;5076540;28;19924;-69
2021/10/12 04:39:39;;;;;;;;;;;;;;;7.04;76.01;99652.16;5076747;28;19978;-69
2021/10/12 04:42:09;;;;;;;;;;;;;;;6.99;76.00;99653.78;5075543;28;19930;-69
2021/10/12 04:44:37;;;;;;;;;;;;;;;6.98;76.81;99649.53;5076713;28;19925;-70
2021/10/12 04:47:06;;;;;;;;;;;;;;;6.94;76.58;99650.31;5076303;28;19931;-69
2021/10/12 04:49:38;;;;;;;;;;;;;;;6.87;76.56;99651.94;5076254;28;19930;-69
2021/10/12 04:52:10;;;;;;;;;;;;;;;6.90;76.54;99643.50;5076500;28;19928;-69
2021/10/12 04:54:42;;;;;;;;;;;;;;;6.88;77.00;99642.63;5076221;28;19924;-69
2021/10/12 04:57:15;;;;;;;;;;;;;;;6.95;76.89;99636.81;5076246;28;19931;-69
2021/10/12 04:59:47;;;;;;;;;;;;;;;7.08;76.87;99631.06;5076124;28;19931;-69
2021/10/12 05:02:20;;;;;;;;;;;;;;;7.11;76.45;99636.16;5076463;28;19924;-70
2021/10/12 05:04:52;;;;;;;;;;;;;;;7.16;76.96;99634.53;5076067;28;19931;-69
2021/10/12 05:07:27;;;;;;;;;;;;;;;7.15;76.66;99632.84;5075986;28;19932;-69
2021/10/12 05:09:59;;;;;;;;;;;;;;;7.11;76.57;99642.09;5076247;28;20015;-69
2021/10/12 05:12:35;;;;;;;;;;;;;;;7.14;77.11;99641.28;5075876;28;19924;-69
2021/10/12 05:15:08;;;;;;;;;;;;;;;7.21;76.28;99640.53;5076188;28;20031;-69
2021/10/12 05:17:46;;;;;;;;;;;;;;;7.22;76.64;99640.53;5075040;28;20365;-70
2021/10/12 05:20:16;;;;;;;;;;;;;;;7.21;76.54;99643.06;5076044;28;19983;-69
2021/10/12 05:22:47;;;;;;;;;;;;;;;7.23;76.52;99638.84;5075984;28;19929;-70
2021/10/12 05:25:16;;;;;;;;;;;;;;;7.25;76.71;99639.72;5075930;28;19925;-70
2021/10/12 05:27:47;;;;;;;;;;;;;;;7.24;76.77;99643.09;5075485;28;20003;-70
2021/10/12 05:30:39;;;;;;;;;;;;;;;7.16;76.81;99652.31;5053929;28;19925;-70
2021/10/12 05:33:13;;;;;;;;;;;;;;;7.12;76.16;99645.50;5053643;28;19925;-70
2021/10/12 05:35:42;;;;;;;;;;;;;;;7.15;76.82;99645.53;5053571;28;19963;-70
2021/10/12 05:38:12;;;;;;;;;;;;;;;7.23;77.17;99646.47;5053349;28;19929;-70
2021/10/12 05:40:42;;;;;;;;;;;;;;;7.23;77.18;99646.47;5053382;28;20379;-70
2021/10/12 05:43:12;;;;;;;;;;;;;;;7.31;77.16;99649.94;5053224;28;19931;-70
2021/10/12 05:45:41;;;;;;;;;;;;;;;7.48;77.27;99653.53;5053257;28;19932;-69
2021/10/12 05:48:11;;;;;;;;;;;;;;;7.57;77.23;99648.56;5053134;28;19924;-70
2021/10/12 05:50:41;;;;;;;;;;;;;;;7.63;77.11;99648.59;5053047;28;20422;-70
2021/10/12 05:53:21;;;;;;;;;;;;;;;7.77;76.59;99647.09;5052971;28;20002;-70
2021/10/12 05:55:53;;;;;;;;;;;;;;;7.92;76.29;99639.59;5053227;28;20433;-69
2021/10/12 06:01:10;;;;;;;;;;;;;;;8.13;76.41;99640.63;5040153;28;19925;-69
2021/10/12 06:03:39;;;;;;;;;;;;;;;8.27;76.30;99639.06;5052748;28;20441;-69
2021/10/12 06:06:08;;;;;;;;;;;;;;;8.42;76.60;99640.00;5052710;28;19924;-70
2021/10/12 06:08:36;;;;;;;;;;;;;;;8.56;76.25;99638.44;5070701;28;20027;-70
2021/10/12 06:11:06;;;;;;;;;;;;;;;8.79;75.76;99643.66;5074651;28;19932;-69
2021/10/12 06:13:37;;;;;;;;;;;;;;;8.91;74.87;99631.00;5074862;28;19951;-70
2021/10/12 06:16:06;;;;;;;;;;;;;;;9.08;74.44;99638.72;5074622;28;19932;-70
2021/10/12 06:18:35;;;;;;;;;;;;;;;9.21;73.03;99631.13;5074310;28;19928;-70
2021/10/12 06:21:04;;;;;;;;;;;;;;;9.33;72.33;99630.34;5074771;28;19931;-70
2021/10/12 06:23:32;;;;;;;;;;;;;;;9.40;72.68;99624.41;5074698;28;20398;-69
2021/10/12 06:26:01;;;;;;;;;;;;;;;9.32;71.32;99634.56;5073557;28;19924;-69
2021/10/12 06:28:30;;;;;;;;;;;;;;;9.21;71.85;99626.03;5074294;28;19960;-69
2021/10/12 06:31:00;;;;;;;;;;;;;;;9.07;71.85;99626.84;5074619;28;20424;-69
2021/10/12 06:33:32;;;;;;;;;;;;;;;9.08;71.89;99634.47;5072887;28;20378;-69
2021/10/12 06:36:01;;;;;;;;;;;;;;;9.00;71.69;99636.13;5074240;28;19924;-69
2021/10/12 06:38:30;;;;;;;;;;;;;;;8.97;72.54;99646.31;5074204;28;19924;-69
2021/10/12 06:40:59;;;;;;;;;;;;;;;8.80;73.20;99637.75;5074241;28;19931;-69
2021/10/12 06:43:27;;;;;;;;;;;;;;;8.78;73.02;99639.44;5073986;28;19924;-70
2021/10/12 06:45:56;;;;;;;;;;;;;;;8.88;73.67;99642.88;5074192;28;19956;-70
2021/10/12 06:48:26;;;;;;;;;;;;;;;9.04;73.01;99648.03;5074460;28;19928;-70
2021/10/12 06:50:55;;;;;;;;;;;;;;;9.18;73.03;99648.97;5074372;28;19977;-70
2021/10/12 06:53:43;;;;;;;;;;;;;;;9.34;72.16;99657.50;5074098;28;19925;-70
2021/10/12 06:56:12;;;;;;;;;;;;;;;9.47;72.52;99653.31;5073909;28;19924;-70
2021/10/12 06:58:40;;;;;;;;;;;;;;;9.59;72.72;99656.75;5073840;28;19928;-70
2021/10/12 07:01:21;;;;;;;;;;;;;;;9.55;71.48;99662.66;5073803;28;19930;-70
2021/10/12 07:03:51;;;;;;;;;;;;;;;9.64;71.64;99660.16;5073840;28;19931;-70
2021/10/12 07:06:20;;;;;;;;;;;;;;;9.72;71.74;99665.25;5073715;28;19924;-70
2021/10/12 07:08:48;;;;;;;;;;;;;;;9.69;71.54;99655.06;5073611;28;19959;-70
2021/10/12 07:11:17;;;;;;;;;;;;;;;9.65;71.25;99658.44;5073433;28;19928;-70
2021/10/12 07:13:47;;;;;;;;;;;;;;;9.77;71.55;99663.56;5073914;28;19978;-70
2021/10/12 07:16:20;;;;;;;;;;;;;;;9.80;71.01;99658.47;5073867;28;19963;-69
2021/10/12 07:18:51;;;;;;;;;;;;;;;9.88;71.26;99646.59;5073431;28;19933;-70
2021/10/12 07:21:20;;;;;;;;;;;;;;;10.00;71.50;99652.56;5073616;28;19924;-70
2021/10/12 07:23:49;;;;;;;;;;;;;;;10.19;70.84;99653.47;5065219;28;19948;-69
2021/10/12 07:26:17;;;;;;;;;;;;;;;10.37;70.65;99665.34;5073595;28;19979;-70
2021/10/12 07:28:46;;;;;;;;;;;;;;;10.46;69.55;99673.03;5073348;28;19924;-70
2021/10/12 07:31:15;;;;;;;;;;;;;;;10.36;69.86;99656.88;5073866;28;20027;-70
2021/10/12 07:33:43;;;;;;;;;;;;;;;10.44;69.61;99660.25;5073538;28;20452;-69
2021/10/12 07:36:13;;;;;;;;;;;;;;;10.57;69.25;99672.16;5073832;28;19931;-70
2021/10/12 07:38:42;;;;;;;;;;;;;;;10.70;69.20;99663.63;5073954;28;20293;-70
2021/10/12 07:41:27;;;;;;;;;;;;;;;10.87;69.12;99655.09;5073500;28;19924;-70
2021/10/12 07:43:56;;;;;;;;;;;;;;;10.96;69.19;99660.19;5073753;28;20019;-70
2021/10/12 07:46:25;;;;;;;;;;;;;;;11.05;68.34;99666.09;5073474;28;19948;-70
2021/10/12 07:48:57;;;;;;;;;;;;;;;11.13;68.26;99673.75;5073704;28;20022;-69
2021/10/12 07:51:41;;;;;;;;;;;;;;;11.20;68.32;99670.31;5073437;28;19924;-70
2021/10/12 07:54:14;;;;;;;;;;;;;;;11.18;68.41;99666.94;5073709;28;20467;-70
2021/10/12 07:56:43;;;;;;;;;;;;;;;11.29;68.16;99675.38;5073383;28;20023;-69
2021/10/12 07:59:12;;;;;;;;;;;;;;;11.42;68.32;99659.16;5073472;28;19932;-69
2021/10/12 08:01:41;;;;;;;;;;;;;;;11.53;67.84;99657.41;5073306;28;20271;-69
2021/10/12 08:04:10;;;;;;;;;;;;;;;11.70;67.59;99660.75;5073328;28;20011;-70
2021/10/12 08:06:41;;;;;;;;;;;;;;;11.75;67.51;99656.47;5073240;28;19928;-70
2021/10/12 08:09:10;;;;;;;;;;;;;;;11.80;67.33;99641.94;5073150;28;20285;-69
2021/10/12 08:11:39;;;;;;;;;;;;;;;12.01;66.73;99641.78;5073137;28;19924;-70
2021/10/12 08:14:10;;;;;;;;;;;;;;;12.17;66.46;99633.97;5073521;28;20385;-69
2021/10/12 08:16:44;;;;;;;;;;;;;;;12.39;66.15;99630.38;5074256;28;19925;-70
2021/10/12 08:19:14;;;;;;;;;;;;;;;12.50;66.15;99626.03;5076506;28;19924;-69
2021/10/12 08:21:44;;;;;;;;;;;;;;;12.63;66.10;99630.16;5076701;28;19931;-70
2021/10/12 08:24:14;;;;;;;;;;;;;;;12.87;65.31;99627.34;5076747;28;19924;-70
2021/10/12 08:26:43;;;;;;;;;;;;;;;13.06;65.00;99616.06;5076943;28;20255;-70
2021/10/12 08:29:15;;;;;;;;;;;;;;;13.26;64.97;99614.13;5076443;28;19959;-70
2021/10/12 08:31:45;;;;;;;;;;;;;;;13.44;63.90;99613.84;5077000;28;19924;-70
2021/10/12 08:34:16;;;;;;;;;;;;;;;13.58;63.27;99610.28;5076628;28;20470;-69
2021/10/12 08:36:46;;;;;;;;;;;;;;;13.62;61.74;99604.22;5076875;28;19931;-70
2021/10/12 08:39:15;;;;;;;;;;;;;;;13.76;61.93;99600.59;5076531;28;19931;-70
2021/10/12 08:41:45;;;;;;;;;;;;;;;14.01;61.34;99604.47;5076471;28;20385;-70
2021/10/12 08:44:14;;;;;;;;;;;;;;;14.10;60.09;99600.91;5076382;28;19924;-69
2021/10/12 08:46:43;;;;;;;;;;;;;;;14.04;59.50;99595.88;5076369;28;19964;-69
2021/10/12 08:49:12;;;;;;;;;;;;;;;14.08;59.41;99588.09;5076229;28;20382;-69
2021/10/12 08:51:42;;;;;;;;;;;;;;;14.10;59.09;99585.53;5076461;28;19924;-69
2021/10/12 08:54:18;;;;;;;;;;;;;;;14.14;58.64;99587.16;5076407;28;20303;-70
2021/10/12 08:56:47;;;;;;;;;;;;;;;14.22;59.11;99589.59;5076083;28;19974;-69
2021/10/12 08:59:16;;;;;;;;;;;;;;;14.38;59.00;99585.91;5076349;28;20366;-70
2021/10/12 09:01:55;;;;;;;;;;;;;;;14.47;58.73;99586.59;5075948;28;19924;-69
2021/10/12 09:04:24;;;;;;;;;;;;;;;14.32;58.34;99586.88;5076318;28;19924;-70
2021/10/12 09:06:53;;;;;;;;;;;;;;;14.05;58.22;99582.19;5075754;28;19955;-69
2021/10/12 09:09:35;;;;;;;;;;;;;;;13.93;59.32;99583.22;5075864;28;19931;-70
2021/10/12 09:12:04;;;;;;;;;;;;;;;13.97;59.68;99584.00;5075762;28;19947;-69
2021/10/12 09:14:32;;;;;;;;;;;;;;;13.99;59.53;99583.13;5075683;28;19931;-70
2021/10/12 09:17:05;;;;;;;;;;;;;;;14.04;60.36;99585.59;5075935;28;19924;-70
2021/10/12 09:19:34;;;;;;;;;;;;;;;14.07;60.60;99581.28;5075709;28;19925;-69
2021/10/12 09:22:05;;;;;;;;;;;;;;;14.05;60.07;99579.59;5075661;28;20085;-70
2021/10/12 09:24:39;;;;;;;;;;;;;;;14.00;59.41;99573.69;5075592;28;19932;-69
2021/10/12 09:27:10;;;;;;;;;;;;;;;13.92;59.48;99578.09;5075650;28;20299;-70
2021/10/12 09:29:42;;;;;;;;;;;;;;;13.83;59.52;99573.97;5075463;28;20020;-70
2021/10/12 09:32:10;;;;;;;;;;;;;;;13.80;59.46;99563.75;5075332;28;19925;-70
2021/10/12 09:34:42;;;;;;;;;;;;;;;13.81;59.35;99562.91;5075702;28;19924;-69
2021/10/12 09:37:11;;;;;;;;;;;;;;;13.83;59.60;99565.41;5074378;28;19925;-70
2021/10/12 09:39:42;;;;;;;;;;;;;;;13.79;59.80;99561.22;5075579;28;19931;-70
2021/10/12 09:42:12;;;;;;;;;;;;;;;13.73;59.26;99567.28;5075173;28;19947;-69
2021/10/12 09:44:51;;;;;;;;;;;;;;;13.65;59.80;99563.16;5075446;28;19925;-69
2021/10/12 09:47:19;;;;;;;;;;;;;;;13.59;59.44;99560.66;5075081;28;20409;-68
2021/10/12 09:49:48;;;;;;;;;;;;;;;13.52;59.38;99553.94;5075072;28;20389;-68
2021/10/12 09:52:20;;;;;;;;;;;;;;;13.50;59.54;99555.69;5075866;28;20018;-69
2021/10/12 09:54:53;;;;;;;;;;;;;;;13.60;59.66;99547.00;5075120;28;20014;-69
2021/10/12 09:57:25;;;;;;;;;;;;;;;13.87;59.49;99551.66;5074882;28;19930;-70
2021/10/12 09:59:53;;;;;;;;;;;;;;;14.03;58.40;99548.84;5075018;28;19924;-69
2021/10/12 10:02:23;;;;;;;;;;;;;;;14.08;58.60;99539.31;5074792;28;19924;-69
2021/10/12 10:04:52;;;;;;;;;;;;;;;14.22;58.43;99549.38;5075128;28;20370;-69
2021/10/12 10:07:24;;;;;;;;;;;;;;;14.44;57.74;99540.44;5074732;28;19931;-68
2021/10/12 10:09:57;;;;;;;;;;;;;;;14.68;56.69;99545.09;5074705;28;19940;-69
2021/10/12 10:12:26;;;;;;;;;;;;;;;14.84;56.69;99540.50;5074497;28;19931;-69
2021/10/12 10:14:55;;;;;;;;;;;;;;;14.95;56.05;99537.75;5074724;28;19931;-69
2021/10/12 10:17:24;;;;;;;;;;;;;;;15.20;56.54;99536.31;5074189;28;19939;-70
2021/10/12 10:19:53;;;;;;;;;;;;;;;15.42;56.31;99529.84;5075137;28;20309;-69
2021/10/12 10:22:33;;;;;;;;;;;;;;;15.54;54.85;99529.59;5074512;28;19931;-69
2021/10/12 10:25:23;;;;;;;;;;;;;;;15.49;54.37;99526.28;5074457;28;19924;-69
2021/10/12 10:27:52;;;;;;;;;;;;;;;15.36;54.38;99535.09;5074390;28;19928;-69
2021/10/12 10:30:21;;;;;;;;;;;;;;;15.19;55.12;99532.06;5074351;28;19932;-69
2021/10/12 10:32:51;;;;;;;;;;;;;;;14.94;54.92;99536.88;5074696;28;19924;-69
2021/10/12 10:35:30;;;;;;;;;;;;;;;14.84;55.84;99530.22;5074124;28;19924;-69
2021/10/12 10:38:15;;;;;;;;;;;;;;;14.65;55.60;99540.03;5074238;28;19924;-69
2021/10/12 10:40:46;;;;;;;;;;;;;;;14.50;55.69;99539.47;5073405;28;19924;-69
2021/10/12 10:43:15;;;;;;;;;;;;;;;14.35;56.03;99537.22;5074206;28;20374;-69
2021/10/12 10:45:50;;;;;;;;;;;;;;;14.17;56.49;99540.91;5074531;28;20374;-69
2021/10/12 10:48:20;;;;;;;;;;;;;;;14.01;56.82;99539.47;5074410;28;19928;-68
2021/10/12 10:51:20;;;;;;;;;;;;;;;13.78;57.48;99536.44;5073897;28;19928;-68
2021/10/12 10:53:48;;;;;;;;;;;;;;;13.65;57.91;99534.94;5074033;28;19929;-69
2021/10/12 10:56:21;;;;;;;;;;;;;;;13.64;58.75;99533.22;5074086;28;19931;-69
2021/10/12 10:59:10;;;;;;;;;;;;;;;13.63;58.89;99532.38;5074031;28;19931;-69
2021/10/12 11:01:40;;;;;;;;;;;;;;;13.60;58.81;99526.47;5073194;28;20468;-68
2021/10/12 11:04:27;;;;;;;;;;;;;;;13.58;58.93;99517.97;5074364;28;19925;-69
2021/10/12 11:07:00;;;;;;;;;;;;;;;13.51;58.49;99527.44;5073726;28;20404;-68
2021/10/12 11:09:29;;;;;;;;;;;;;;;13.49;58.77;99512.94;5073809;28;19993;-69
2021/10/12 11:11:59;;;;;;;;;;;;;;;13.52;58.32;99520.59;5074177;28;20019;-69
2021/10/12 11:14:30;;;;;;;;;;;;;;;13.54;58.13;99511.16;5074091;28;19924;-69
2021/10/12 11:17:09;;;;;;;;;;;;;;;13.56;58.14;99515.41;5073811;28;19982;-69
2021/10/12 11:19:52;;;;;;;;;;;;;;;13.57;57.31;99503.44;5073834;28;19931;-69
2021/10/12 11:22:21;;;;;;;;;;;;;;;13.60;56.74;99500.81;5073580;28;20351;-69
2021/10/12 11:24:50;;;;;;;;;;;;;;;13.64;56.72;99493.06;5073978;28;19959;-69
2021/10/12 11:27:42;;;;;;;;;;;;;;;13.67;56.64;99484.47;5073812;28;19977;-69
2021/10/12 11:30:12;;;;;;;;;;;;;;;13.72;56.80;99482.69;5073788;28;19925;-69
2021/10/12 11:32:40;;;;;;;;;;;;;;;13.96;56.29;99480.50;5073538;28;19928;-69
2021/10/12 11:35:10;;;;;;;;;;;;;;;14.25;55.86;99476.59;5073518;28;20020;-69
2021/10/12 11:37:51;;;;;;;;;;;;;;;14.64;55.30;99455.28;5073823;28;19924;-69
2021/10/12 11:40:22;;;;;;;;;;;;;;;15.03;54.84;99458.72;5073499;28;19986;-69
2021/10/12 11:42:53;;;;;;;;;;;;;;;15.51;55.06;99452.47;5089195;28;19925;-69
2021/10/12 11:45:21;;;;;;;;;;;;;;;15.79;53.31;99448.31;5073744;28;19924;-69
2021/10/12 11:47:50;;;;;;;;;;;;;;;16.14;52.65;99439.69;5073352;28;20297;-69
2021/10/12 11:50:18;;;;;;;;;;;;;;;16.41;52.27;99433.75;5073474;28;19975;-69
2021/10/12 11:52:47;;;;;;;;;;;;;;;16.72;51.47;99431.19;5077297;28;19972;-69
2021/10/12 11:55:17;;;;;;;;;;;;;;;16.56;49.10;99425.63;5077678;28;19924;-69
2021/10/12 11:57:47;;;;;;;;;;;;;;;16.25;49.21;99431.66;5077499;28;19924;-69
2021/10/12 12:00:18;;;;;;;;;;;;;;;16.31;49.71;99418.63;5077464;28;20356;-69
2021/10/12 12:02:47;;;;;;;;;;;;;;;16.51;50.33;99413.72;5077264;28;19925;-69
2021/10/12 12:05:15;;;;;;;;;;;;;;;16.76;49.27;99419.91;5077407;28;20424;-69
2021/10/12 12:07:47;;;;;;;;;;;;;;;16.89;49.37;99421.25;5076908;28;19925;-69
2021/10/12 12:10:15;;;;;;;;;;;;;;;16.95;48.96;99421.03;5076963;28;20382;-69
2021/10/12 12:12:45;;;;;;;;;;;;;;;17.02;48.35;99414.78;5076847;28;19967;-69
2021/10/12 12:15:14;;;;;;;;;;;;;;;16.98;48.10;99414.94;5076900;28;19924;-70
2021/10/12 12:17:44;;;;;;;;;;;;;;;17.03;47.87;99408.75;5076652;28;19924;-68
2021/10/12 12:20:13;;;;;;;;;;;;;;;17.03;47.76;99408.75;5076703;28;20027;-68
2021/10/12 12:22:42;;;;;;;;;;;;;;;16.79;47.38;99399.19;5076575;28;19947;-69
2021/10/12 12:25:14;;;;;;;;;;;;;;;16.73;46.99;99404.53;5076695;28;19924;-69
2021/10/12 12:27:53;;;;;;;;;;;;;;;16.66;46.15;99403.88;5076554;28;19971;-69
2021/10/12 12:30:32;;;;;;;;;;;;;;;16.70;45.58;99399.44;5076510;28;20018;-69
2021/10/12 12:33:02;;;;;;;;;;;;;;;16.90;45.00;99404.00;5076435;28;20011;-69
2021/10/12 12:35:38;;;;;;;;;;;;;;;16.95;44.18;99400.41;5076747;28;20282;-69
2021/10/12 12:38:07;;;;;;;;;;;;;;;16.85;44.48;99393.00;5076575;28;20029;-69
2021/10/12 12:40:38;;;;;;;;;;;;;;;16.64;44.87;99385.03;5076469;28;20416;-69
2021/10/12 12:43:24;;;;;;;;;;;;;;;16.46;45.53;99382.13;5076776;28;19924;-69
2021/10/12 12:46:04;;;;;;;;;;;;;;;16.25;45.42;99382.72;5076611;28;19989;-69
2021/10/12 12:48:34;;;;;;;;;;;;;;;16.08;45.28;99376.34;5076391;28;19925;-69
2021/10/12 12:51:04;;;;;;;;;;;;;;;15.95;44.94;99375.00;5076256;28;19981;-69
2021/10/12 12:53:40;;;;;;;;;;;;;;;15.94;44.69;99375.00;5076185;28;19924;-69
2021/10/12 12:56:10;;;;;;;;;;;;;;;16.19;44.04;99370.03;5076570;28;19924;-69
2021/10/12 12:58:40;;;;;;;;;;;;;;;16.42;43.65;99362.47;5075606;28;19924;-69
